Time;durP1;ratioP1;P1;durP2;ratioP2;P2;SDS_P1;SDS_P2;PMS_P1;PMS_P2;Temp;Humidity;BMP_temperature;BMP_pressure;BME280_temperature;BME280_humidity;BME280_pressure;Samples;Min_cycle;Max_cycle;Signal;HPM_P1;HPM_P2
2021/08/16 00:01:10;;;;;;;15.65;2.72;;;17.50;86.90;;;;;;5075594;28;20476;-78
2021/08/16 00:03:35;;;;;;;10.35;2.40;;;17.60;87.20;;;;;;5075408;28;20031;-77
2021/08/16 00:06:01;;;;;;;12.45;2.70;;;17.60;87.00;;;;;;5059055;28;20056;-78
2021/08/16 00:08:27;;;;;;;11.82;2.70;;;17.60;86.90;;;;;;5076849;28;20024;-79
2021/08/16 00:10:52;;;;;;;10.02;2.25;;;17.60;87.10;;;;;;5076674;28;20449;-80
2021/08/16 00:13:20;;;;;;;7.88;2.30;;;17.70;86.90;;;;;;5075306;28;20032;-79
2021/08/16 00:15:46;;;;;;;15.88;2.72;;;17.70;87.00;;;;;;5075390;28;20025;-79
2021/08/16 00:18:12;;;;;;;12.35;2.78;;;17.70;87.10;;;;;;5075233;28;20029;-80
2021/08/16 00:20:38;;;;;;;10.27;2.25;;;17.70;86.90;;;;;;5041836;28;20033;-80
2021/08/16 00:23:04;;;;;;;14.40;2.60;;;17.70;87.00;;;;;;5058368;28;20028;-78
2021/08/16 00:25:30;;;;;;;16.77;3.33;;;17.80;87.00;;;;;;5058377;28;20432;-78
2021/08/16 00:27:56;;;;;;;13.70;2.80;;;17.70;86.90;;;;;;5076070;28;20468;-75
2021/08/16 00:30:21;;;;;;;11.93;2.22;;;17.70;86.70;;;;;;5075084;28;20036;-79
2021/08/16 00:32:49;;;;;;;12.38;2.70;;;17.70;86.70;;;;;;5076244;28;20427;-79
2021/08/16 00:35:14;;;;;;;11.20;2.40;;;17.70;86.70;;;;;;5057424;28;20045;-76
2021/08/16 00:37:40;;;;;;;16.13;3.13;;;17.70;86.90;;;;;;5074868;28;20361;-77
2021/08/16 00:40:07;;;;;;;14.07;2.78;;;17.70;86.90;;;;;;5074770;28;20493;-78
2021/08/16 00:42:33;;;;;;;13.98;3.25;;;17.70;87.00;;;;;;5074775;28;20139;-77
2021/08/16 00:44:59;;;;;;;14.90;3.40;;;17.70;87.60;;;;;;5076045;28;20115;-79
2021/08/16 00:47:24;;;;;;;12.98;2.55;;;17.60;87.10;;;;;;5074455;28;20059;-79
2021/08/16 00:49:50;;;;;;;16.17;2.70;;;17.70;87.10;;;;;;5074398;28;20032;-79
2021/08/16 00:52:16;;;;;;;15.02;2.70;;;17.60;87.10;;;;;;5057861;28;20025;-80
2021/08/16 00:54:42;;;;;;;14.00;2.67;;;17.60;87.10;;;;;;5075748;28;20427;-78
2021/08/16 00:57:08;;;;;;;16.05;3.05;;;17.50;87.30;;;;;;5057728;28;20028;-80
2021/08/16 00:59:33;;;;;;;12.45;2.78;;;17.60;87.40;;;;;;5075578;28;20082;-80
2021/08/16 01:01:59;;;;;;;17.17;3.38;;;17.50;87.80;;;;;;5074347;28;20041;-79
2021/08/16 01:04:27;;;;;;;19.98;3.50;;;17.50;88.00;;;;;;5057681;28;20131;-76
2021/08/16 01:06:52;;;;;;;12.07;2.67;;;17.50;88.40;;;;;;5075562;28;20033;-79
2021/08/16 01:09:18;;;;;;;22.08;3.33;;;17.40;88.50;;;;;;5040953;28;20040;-78
2021/08/16 01:11:47;;;;;;;11.32;3.13;;;17.50;88.40;;;;;;5057419;28;20115;-78
2021/08/16 01:14:13;;;;;;;13.75;2.58;;;17.50;88.50;;;;;;5074230;28;20029;-79
2021/08/16 01:16:38;;;;;;;20.83;3.50;;;17.50;88.50;;;;;;5075429;28;20107;-79
2021/08/16 01:19:05;;;;;;;12.90;3.13;;;17.50;88.60;;;;;;5075419;28;20171;-79
2021/08/16 01:21:31;;;;;;;16.92;3.08;;;17.50;88.50;;;;;;5074046;28;20037;-79
2021/08/16 01:23:56;;;;;;;14.73;2.65;;;17.50;88.60;;;;;;5074125;28;20166;-78
2021/08/16 01:26:22;;;;;;;17.92;3.75;;;17.50;88.60;;;;;;5074138;28;20067;-76
2021/08/16 01:28:48;;;;;;;22.88;3.28;;;17.50;88.80;;;;;;5075008;28;20118;-76
2021/08/16 01:31:14;;;;;;;12.50;2.90;;;17.50;88.90;;;;;;5073813;28;20024;-75
2021/08/16 01:33:40;;;;;;;17.70;3.08;;;17.50;89.00;;;;;;5056978;28;20029;-75
2021/08/16 01:36:06;;;;;;;16.50;3.22;;;17.50;89.00;;;;;;5073520;28;20040;-75
2021/08/16 01:38:36;;;;;;;15.23;3.08;;;17.50;89.00;;;;;;5074733;28;20036;-76
2021/08/16 01:41:03;;;;;;;11.82;2.45;;;17.50;89.10;;;;;;5074918;28;20616;-75
2021/08/16 01:43:29;;;;;;;12.85;2.28;;;17.50;89.00;;;;;;5073554;28;20039;-75
2021/08/16 01:45:55;;;;;;;15.20;2.75;;;17.50;88.90;;;;;;5056810;28;20111;-75
2021/08/16 01:48:20;;;;;;;16.05;2.42;;;17.40;89.00;;;;;;5073284;28;20025;-73
2021/08/16 01:50:49;;;;;;;13.63;3.00;;;17.40;89.00;;;;;;5073626;28;20384;-76
2021/08/16 01:53:14;;;;;;;10.48;2.85;;;17.40;89.10;;;;;;5074743;28;20433;-75
2021/08/16 01:55:41;;;;;;;13.65;2.53;;;17.40;89.10;;;;;;5040042;28;20112;-75
2021/08/16 01:58:08;;;;;;;15.55;3.25;;;17.40;89.00;;;;;;5074370;28;20052;-74
2021/08/16 02:00:34;;;;;;;15.45;3.17;;;17.40;89.40;;;;;;5074384;28;20028;-73
2021/08/16 02:02:59;;;;;;;13.77;3.08;;;17.30;89.50;;;;;;5073165;28;20119;-76
2021/08/16 02:05:25;;;;;;;13.65;2.78;;;17.30;89.50;;;;;;5056508;28;20107;-74
2021/08/16 02:07:51;;;;;;;14.65;2.33;;;17.30;89.60;;;;;;5074210;28;20100;-75
2021/08/16 02:10:17;;;;;;;11.52;2.35;;;17.30;89.50;;;;;;5072664;28;20032;-75
2021/08/16 02:12:42;;;;;;;16.90;2.92;;;17.30;89.70;;;;;;5074040;28;20051;-74
2021/08/16 02:15:10;;;;;;;17.33;3.72;;;17.30;89.80;;;;;;5067965;28;20025;-75
2021/08/16 02:17:36;;;;;;;17.45;3.55;;;17.20;90.00;;;;;;5052685;28;20028;-75
2021/08/16 02:20:04;;;;;;;17.58;3.42;;;17.20;90.10;;;;;;5052562;28;20033;-75
2021/08/16 02:22:30;;;;;;;26.00;4.18;;;17.30;90.30;;;;;;5052909;28;20029;-74
2021/08/16 02:24:56;;;;;;;19.42;3.58;;;17.20;90.30;;;;;;5054152;28;20044;-74
2021/08/16 02:27:21;;;;;;;18.55;3.83;;;17.20;90.40;;;;;;5052994;28;20468;-75
2021/08/16 02:29:47;;;;;;;14.07;2.75;;;17.20;90.50;;;;;;5035982;28;20068;-79
2021/08/16 02:32:13;;;;;;;15.45;3.60;;;17.20;90.60;;;;;;5052985;28;20052;-76
2021/08/16 02:34:39;;;;;;;13.80;2.85;;;17.10;90.60;;;;;;5052590;28;20461;-75
2021/08/16 02:37:05;;;;;;;14.13;2.75;;;17.10;90.70;;;;;;5035928;28;20049;-75
2021/08/16 02:39:31;;;;;;;15.82;4.13;;;17.10;90.90;;;;;;5035881;28;20029;-75
2021/08/16 02:41:57;;;;;;;18.45;3.35;;;17.10;91.00;;;;;;5052815;28;20021;-75
2021/08/16 02:44:22;;;;;;;14.77;2.78;;;17.00;90.90;;;;;;5036268;28;20029;-76
2021/08/16 02:46:48;;;;;;;15.32;3.30;;;17.10;91.00;;;;;;5052561;28;20064;-75
2021/08/16 02:49:14;;;;;;;21.00;4.05;;;17.00;91.10;;;;;;5035939;28;20121;-75
2021/08/16 02:51:39;;;;;;;12.93;2.85;;;17.00;91.20;;;;;;5019431;28;20103;-75
2021/08/16 02:54:05;;;;;;;15.02;3.40;;;17.00;91.20;;;;;;5058683;28;20048;-76
2021/08/16 02:56:31;;;;;;;19.25;2.90;;;17.00;91.30;;;;;;5053689;28;20063;-73
2021/08/16 02:58:56;;;;;;;12.15;2.65;;;17.00;91.20;;;;;;5034844;28;20082;-75
2021/08/16 03:01:22;;;;;;;15.15;4.05;;;17.00;91.30;;;;;;5035556;28;20053;-76
2021/08/16 03:03:47;;;;;;;18.25;3.65;;;17.00;91.30;;;;;;5035701;28;20037;-74
2021/08/16 03:06:13;;;;;;;21.20;3.17;;;17.00;91.40;;;;;;5052022;28;20481;-76
2021/08/16 03:08:39;;;;;;;12.63;3.30;;;17.00;91.50;;;;;;5035324;28;20067;-75
2021/08/16 03:11:05;;;;;;;16.35;3.22;;;17.10;91.60;;;;;;5035614;28;20497;-74
2021/08/16 03:13:33;;;;;;;13.55;2.83;;;17.00;91.80;;;;;;5051938;28;20078;-75
2021/08/16 03:15:59;;;;;;;14.23;3.00;;;17.00;91.80;;;;;;5051958;28;20025;-75
2021/08/16 03:18:25;;;;;;;13.13;2.95;;;17.00;92.10;;;;;;5035976;28;20040;-74
2021/08/16 03:20:52;;;;;;;14.18;2.97;;;17.00;92.20;;;;;;5051930;28;20036;-75
2021/08/16 03:23:18;;;;;;;15.77;2.95;;;17.00;91.90;;;;;;5051940;28;20033;-74
2021/08/16 03:25:44;;;;;;;19.00;3.92;;;17.00;92.10;;;;;;5053166;28;20029;-74
2021/08/16 03:28:09;;;;;;;17.58;3.08;;;17.00;92.10;;;;;;5035365;28;20033;-75
2021/08/16 03:30:35;;;;;;;15.90;3.38;;;17.00;92.20;;;;;;5051964;28;20045;-74
2021/08/16 03:33:01;;;;;;;15.30;3.75;;;17.00;92.30;;;;;;5053031;28;20507;-79
2021/08/16 03:35:26;;;;;;;14.85;3.25;;;17.00;92.30;;;;;;5051500;28;20056;-73
2021/08/16 03:37:52;;;;;;;16.67;3.50;;;17.10;92.40;;;;;;5051621;28;20029;-76
2021/08/16 03:40:18;;;;;;;12.90;2.75;;;17.00;92.30;;;;;;5051726;28;20065;-76
2021/08/16 03:42:43;;;;;;;14.32;3.95;;;17.00;92.40;;;;;;5053084;28;20029;-75
2021/08/16 03:45:21;;;;;;;20.67;4.00;;;17.10;92.40;;;;;;5035329;28;20075;-75
2021/08/16 03:47:47;;;;;;;16.40;2.75;;;17.10;92.50;;;;;;5051628;28;20048;-75
2021/08/16 03:50:12;;;;;;;15.05;3.50;;;17.10;92.50;;;;;;5018566;28;20052;-75
2021/08/16 03:52:38;;;;;;;14.40;3.55;;;17.10;92.50;;;;;;5052765;28;20450;-76
2021/08/16 03:55:04;;;;;;;11.10;2.50;;;17.10;92.60;;;;;;5051531;28;20025;-75
2021/08/16 03:57:30;;;;;;;13.43;2.97;;;17.10;92.60;;;;;;5051919;28;20420;-76
2021/08/16 03:59:55;;;;;;;13.48;2.72;;;17.10;92.50;;;;;;5035011;28;20087;-75
2021/08/16 04:02:21;;;;;;;14.00;3.15;;;17.10;92.50;;;;;;5051597;28;20695;-75
2021/08/16 04:04:48;;;;;;;15.25;4.20;;;17.20;92.60;;;;;;5034672;28;20416;-75
2021/08/16 04:07:14;;;;;;;11.73;3.60;;;17.10;92.50;;;;;;5052528;28;20048;-75
2021/08/16 04:09:39;;;;;;;14.35;3.45;;;17.20;92.50;;;;;;5051788;28;20484;-76
2021/08/16 04:12:05;;;;;;;17.02;4.03;;;17.20;92.50;;;;;;5056520;28;20029;-75
2021/08/16 04:14:31;;;;;;;14.23;3.13;;;17.20;92.50;;;;;;5055174;28;20095;-75
2021/08/16 04:16:57;;;;;;;13.85;3.42;;;17.20;92.50;;;;;;5055203;28;20368;-75
2021/08/16 04:19:22;;;;;;;14.38;3.60;;;17.20;92.50;;;;;;5056378;28;20033;-74
2021/08/16 04:21:48;;;;;;;18.73;4.28;;;17.20;92.60;;;;;;5056381;28;20040;-75
2021/08/16 04:24:14;;;;;;;13.60;3.67;;;17.20;92.50;;;;;;5055042;28;20112;-75
2021/08/16 04:26:39;;;;;;;20.70;3.95;;;17.20;92.50;;;;;;5055541;28;20029;-75
2021/08/16 04:29:05;;;;;;;17.83;4.10;;;17.20;92.60;;;;;;5037224;28;20068;-75
2021/08/16 04:31:31;;;;;;;15.43;3.60;;;17.20;92.50;;;;;;5054259;28;20100;-75
2021/08/16 04:33:56;;;;;;;16.13;3.58;;;17.20;92.60;;;;;;5038256;28;20021;-75
2021/08/16 04:36:22;;;;;;;20.45;4.10;;;17.20;92.60;;;;;;5054630;28;20128;-76
2021/08/16 04:38:48;;;;;;;14.18;4.22;;;17.20;92.70;;;;;;5038119;28;20032;-74
2021/08/16 04:41:14;;;;;;;18.50;5.10;;;17.20;92.80;;;;;;5054703;28;20033;-76
2021/08/16 04:43:39;;;;;;;20.42;4.80;;;17.20;92.80;;;;;;5038019;28;20032;-74
2021/08/16 04:46:05;;;;;;;15.70;4.57;;;17.10;92.80;;;;;;5038370;28;20557;-76
2021/08/16 04:48:31;;;;;;;17.65;5.15;;;17.10;92.90;;;;;;5054416;28;20057;-75
2021/08/16 04:50:57;;;;;;;15.27;3.95;;;17.10;92.90;;;;;;5055803;28;20096;-77
2021/08/16 04:53:22;;;;;;;16.52;5.20;;;17.10;92.80;;;;;;5054747;28;20021;-76
2021/08/16 04:55:48;;;;;;;20.23;4.80;;;17.10;93.00;;;;;;5054518;28;20538;-75
2021/08/16 04:58:13;;;;;;;13.55;4.63;;;17.10;93.00;;;;;;5054430;28;20031;-75
2021/08/16 05:00:39;;;;;;;13.27;4.05;;;17.10;93.00;;;;;;5037777;28;20029;-75
2021/08/16 05:03:05;;;;;;;15.00;4.38;;;17.10;93.00;;;;;;5054303;28;20176;-77
2021/08/16 05:05:30;;;;;;;17.08;5.18;;;17.20;93.10;;;;;;5054351;28;20055;-75
2021/08/16 05:07:58;;;;;;;17.42;6.35;;;17.20;93.10;;;;;;5054223;28;20029;-75
2021/08/16 05:10:26;;;;;;;12.45;4.55;;;17.20;93.10;;;;;;5054034;28;20025;-75
2021/08/16 05:12:54;;;;;;;13.10;4.38;;;17.20;93.00;;;;;;5055673;28;20100;-75
2021/08/16 05:15:20;;;;;;;14.82;5.40;;;17.20;93.00;;;;;;5054015;28;20392;-75
2021/08/16 05:17:46;;;;;;;16.02;3.83;;;17.20;93.00;;;;;;5056441;28;20078;-77
2021/08/16 05:20:13;;;;;;;19.65;6.07;;;17.30;92.90;;;;;;5073514;28;20052;-75
2021/08/16 05:22:43;;;;;;;17.83;5.13;;;17.30;92.90;;;;;;5074099;28;20043;-77
2021/08/16 05:25:11;;;;;;;20.17;6.40;;;17.40;93.00;;;;;;5074259;28;20070;-75
2021/08/16 05:27:37;;;;;;;16.10;4.78;;;17.40;92.90;;;;;;5075070;28;20025;-76
2021/08/16 05:30:04;;;;;;;15.23;6.32;;;17.40;93.20;;;;;;5057014;28;20089;-77
2021/08/16 05:32:30;;;;;;;19.88;6.43;;;17.40;92.90;;;;;;5057047;28;20032;-76
2021/08/16 05:34:56;;;;;;;16.55;6.85;;;17.50;92.90;;;;;;5040592;28;20021;-78
2021/08/16 05:37:22;;;;;;;17.08;6.43;;;17.50;92.90;;;;;;5056816;28;20041;-78
2021/08/16 05:39:48;;;;;;;18.40;7.95;;;17.40;93.10;;;;;;5040312;28;20497;-76
2021/08/16 05:42:15;;;;;;;16.00;7.43;;;17.50;92.80;;;;;;5056934;28;20036;-76
2021/08/16 05:44:41;;;;;;;15.05;6.93;;;17.50;93.10;;;;;;5074811;28;20086;-76
2021/08/16 05:47:07;;;;;;;18.35;8.52;;;17.50;92.80;;;;;;5074719;28;20032;-77
2021/08/16 05:49:33;;;;;;;17.15;8.23;;;17.50;92.80;;;;;;5056754;28;20495;-77
2021/08/16 05:51:58;;;;;;;19.13;8.55;;;17.60;92.80;;;;;;5073449;28;20017;-76
2021/08/16 05:54:24;;;;;;;19.20;8.38;;;17.60;92.70;;;;;;5073385;28;20059;-76
2021/08/16 05:56:51;;;;;;;15.40;7.93;;;17.60;92.70;;;;;;5074723;28;20024;-75
2021/08/16 05:59:17;;;;;;;20.15;8.55;;;17.60;92.90;;;;;;5074296;28;20033;-76
2021/08/16 06:01:43;;;;;;;16.08;8.07;;;17.70;92.70;;;;;;5073060;28;20111;-76
2021/08/16 06:04:09;;;;;;;18.38;9.90;;;17.70;92.60;;;;;;5073011;28;20541;-75
2021/08/16 06:06:36;;;;;;;18.20;9.07;;;17.70;92.60;;;;;;5073108;28;20020;-76
2021/08/16 06:09:03;;;;;;;17.52;9.18;;;17.60;92.50;;;;;;5072887;28;20028;-75
2021/08/16 06:11:29;;;;;;;20.92;10.45;;;17.70;92.50;;;;;;5073051;28;20086;-75
2021/08/16 06:13:54;;;;;;;20.67;9.60;;;17.70;92.50;;;;;;5073125;28;20112;-76
2021/08/16 06:16:20;;;;;;;17.98;9.10;;;17.70;92.50;;;;;;5039765;28;20027;-77
2021/08/16 06:18:46;;;;;;;25.40;11.02;;;17.70;92.50;;;;;;5072885;28;20037;-76
2021/08/16 06:21:11;;;;;;;22.73;10.43;;;17.70;92.80;;;;;;5073049;28;20033;-74
2021/08/16 06:23:37;;;;;;;17.17;10.00;;;17.80;92.80;;;;;;5072955;28;20024;-75
2021/08/16 06:26:04;;;;;;;18.73;9.85;;;17.80;92.60;;;;;;5055986;28;20037;-74
2021/08/16 06:28:30;;;;;;;19.67;11.15;;;17.80;92.50;;;;;;5073834;28;20511;-75
2021/08/16 06:30:56;;;;;;;17.77;10.50;;;17.80;92.60;;;;;;5073968;28;20074;-76
2021/08/16 06:33:22;;;;;;;22.08;12.30;;;17.80;92.60;;;;;;5071710;28;20420;-74
2021/08/16 06:35:49;;;;;;;24.35;14.32;;;17.80;93.00;;;;;;5064459;28;20033;-76
2021/08/16 06:38:25;;;;;;;19.83;13.10;;;17.70;93.30;;;;;;5052545;28;20447;-75
2021/08/16 06:40:53;;;;;;;23.00;15.55;;;17.60;93.60;;;;;;5042561;28;20476;-76
2021/08/16 06:43:20;;;;;;;21.70;13.73;;;17.60;93.90;;;;;;5064066;28;20485;-79
2021/08/16 06:45:45;;;;;;;21.38;14.68;;;17.50;94.20;;;;;;5043957;28;20016;-76
2021/08/16 06:48:12;;;;;;;26.00;15.38;;;17.40;94.60;;;;;;5056381;28;20028;-76
2021/08/16 06:50:41;;;;;;;24.23;13.77;;;17.30;94.90;;;;;;5064592;28;20027;-78
2021/08/16 06:53:11;;;;;;;24.33;14.50;;;17.20;95.20;;;;;;5063788;28;20018;-79
2021/08/16 06:55:37;;;;;;;30.83;16.30;;;17.20;95.20;;;;;;5060616;28;20029;-80
2021/08/16 06:58:03;;;;;;;28.45;18.02;;;17.10;95.50;;;;;;5067768;28;20028;-78
2021/08/16 07:00:30;;;;;;;31.52;18.33;;;17.00;95.90;;;;;;5061973;28;20087;-76
2021/08/16 07:02:55;;;;;;;25.10;16.30;;;17.00;96.10;;;;;;5049976;28;20032;-78
2021/08/16 07:05:21;;;;;;;30.45;17.73;;;16.90;96.60;;;;;;5061805;28;20028;-80
2021/08/16 07:07:47;;;;;;;30.10;18.80;;;16.90;96.80;;;;;;5060274;28;20013;-80
2021/08/16 07:10:13;;;;;;;26.55;17.30;;;16.80;96.80;;;;;;5046310;28;20048;-82
2021/08/16 07:12:39;;;;;;;25.48;16.83;;;16.80;97.10;;;;;;5053409;28;20596;-79
2021/08/16 07:15:05;;;;;;;24.77;14.48;;;16.70;97.40;;;;;;5055957;28;20039;-79
2021/08/16 07:17:30;;;;;;;22.20;13.57;;;16.70;97.50;;;;;;5064450;28;20485;-79
2021/08/16 07:19:56;;;;;;;26.80;14.48;;;16.70;97.70;;;;;;5060774;28;21136;-79
2021/08/16 07:22:22;;;;;;;19.67;13.80;;;16.70;97.90;;;;;;5048516;28;20067;-78
2021/08/16 07:24:47;;;;;;;20.30;13.75;;;16.70;98.00;;;;;;5055035;28;20478;-78
2021/08/16 07:27:13;;;;;;;18.38;11.30;;;16.70;98.10;;;;;;5051777;28;20025;-78
2021/08/16 07:29:38;;;;;;;16.63;12.13;;;16.60;98.20;;;;;;5035344;28;20033;-77
2021/08/16 07:32:04;;;;;;;22.67;12.50;;;16.60;98.50;;;;;;5035414;28;20025;-76
2021/08/16 07:34:30;;;;;;;21.20;12.63;;;16.50;98.70;;;;;;5051858;28;20056;-79
2021/08/16 07:36:56;;;;;;;23.65;13.93;;;16.50;98.90;;;;;;5035156;28;20064;-77
2021/08/16 07:39:22;;;;;;;21.05;12.60;;;16.50;99.00;;;;;;5035188;28;20033;-78
2021/08/16 07:41:48;;;;;;;18.05;10.82;;;16.50;99.20;;;;;;5035339;28;20036;-79
2021/08/16 07:44:15;;;;;;;14.75;7.20;;;16.50;99.20;;;;;;5053015;28;20037;-77
2021/08/16 07:46:41;;;;;;;14.32;5.95;;;16.50;99.30;;;;;;5055897;28;20122;-77
2021/08/16 07:49:07;;;;;;;9.57;4.70;;;16.50;99.30;;;;;;5041013;28;20025;-80
2021/08/16 07:51:33;;;;;;;14.15;4.57;;;16.50;99.40;;;;;;5057122;28;20051;-78
2021/08/16 07:53:59;;;;;;;13.93;4.75;;;16.50;99.40;;;;;;5056951;28;20082;-78
2021/08/16 07:56:24;;;;;;;11.82;4.57;;;16.50;99.50;;;;;;5055697;28;20024;-78
2021/08/16 07:58:50;;;;;;;14.18;4.50;;;16.50;99.50;;;;;;5056789;28;20064;-78
2021/08/16 08:01:17;;;;;;;18.48;4.30;;;16.50;99.50;;;;;;5055659;28;20127;-77
2021/08/16 08:03:43;;;;;;;13.95;4.82;;;16.50;99.50;;;;;;5055846;28;20075;-78
2021/08/16 08:06:09;;;;;;;10.63;4.22;;;16.50;99.50;;;;;;5072361;28;20464;-78
2021/08/16 08:08:34;;;;;;;11.63;4.30;;;16.40;99.50;;;;;;5056660;28;20040;-78
2021/08/16 08:11:00;;;;;;;11.00;4.75;;;16.50;99.60;;;;;;5055452;28;20488;-78
2021/08/16 08:13:25;;;;;;;11.23;3.95;;;16.50;99.80;;;;;;5055341;28;20456;-78
2021/08/16 08:15:51;;;;;;;11.02;4.55;;;16.60;99.80;;;;;;5055162;28;20027;-77
2021/08/16 08:18:17;;;;;;;12.32;4.03;;;16.60;99.70;;;;;;5072021;28;20071;-77
2021/08/16 08:20:42;;;;;;;11.45;4.57;;;16.60;99.60;;;;;;5055173;28;20036;-78
2021/08/16 08:23:09;;;;;;;11.45;4.60;;;16.50;99.50;;;;;;5055261;28;20036;-78
2021/08/16 08:25:36;;;;;;;12.25;4.30;;;16.40;99.40;;;;;;5071653;28;20040;-79
2021/08/16 08:28:04;;;;;;;9.77;3.67;;;16.40;99.40;;;;;;5071585;28;20491;-78
2021/08/16 08:30:30;;;;;;;7.38;3.55;;;16.30;99.40;;;;;;5055062;28;20036;-78
2021/08/16 08:32:56;;;;;;;13.63;4.55;;;16.10;98.40;;;;;;5056092;28;20377;-78
2021/08/16 08:35:23;;;;;;;9.45;4.15;;;16.00;98.40;;;;;;5059122;28;20025;-78
2021/08/16 08:37:51;;;;;;;12.23;4.22;;;15.90;98.60;;;;;;5045180;28;20056;-79
2021/08/16 08:40:17;;;;;;;10.38;5.13;;;15.80;99.00;;;;;;5060485;28;20025;-79
2021/08/16 08:42:53;;;;;;;12.80;5.47;;;15.70;98.70;;;;;;5048358;28;20052;-78
2021/08/16 08:45:21;;;;;;;15.02;5.15;;;15.70;99.00;;;;;;5057377;28;20025;-78
2021/08/16 08:47:47;;;;;;;12.25;5.22;;;15.70;99.00;;;;;;5058530;28;20370;-78
2021/08/16 08:50:15;;;;;;;12.25;5.38;;;15.80;99.00;;;;;;5043158;28;20032;-78
2021/08/16 08:52:42;;;;;;;12.95;5.10;;;15.80;99.10;;;;;;5054075;28;20385;-77
2021/08/16 08:55:08;;;;;;;9.00;4.60;;;15.90;99.20;;;;;;5055894;28;20024;-78
2021/08/16 08:57:37;;;;;;;11.57;5.05;;;16.00;99.40;;;;;;5055953;28;20489;-77
2021/08/16 09:00:05;;;;;;;13.20;5.55;;;16.10;99.40;;;;;;5059702;28;20081;-76
2021/08/16 09:02:30;;;;;;;14.10;4.78;;;16.30;99.50;;;;;;5058179;28;20036;-77
2021/08/16 09:04:56;;;;;;;11.32;4.50;;;16.40;99.40;;;;;;5054128;28;20029;-78
2021/08/16 09:07:37;;;;;;;13.15;4.65;;;16.50;99.20;;;;;;5063068;28;20089;-78
2021/08/16 09:10:11;;;;;;;12.40;4.40;;;16.50;99.20;;;;;;5071219;28;20021;-78
2021/08/16 09:12:38;;;;;;;13.93;4.82;;;16.60;99.00;;;;;;5067106;28;20099;-78
2021/08/16 09:15:16;;;;;;;10.07;4.47;;;16.60;98.70;;;;;;5055879;28;20124;-78
2021/08/16 09:17:42;;;;;;;11.02;3.63;;;16.70;98.80;;;;;;5070393;28;20037;-79
2021/08/16 09:20:30;;;;;;;11.00;3.95;;;16.80;98.60;;;;;;5055978;28;20032;-79
2021/08/16 09:23:01;;;;;;;12.45;4.30;;;16.90;98.70;;;;;;5069834;28;20024;-78
2021/08/16 09:25:31;;;;;;;12.63;4.13;;;17.00;98.50;;;;;;5074674;28;20044;-78
2021/08/16 09:27:57;;;;;;;13.02;3.70;;;17.10;98.10;;;;;;5064764;28;20112;-79
2021/08/16 09:30:31;;;;;;;9.68;3.78;;;17.10;97.90;;;;;;5049514;28;20028;-78
2021/08/16 09:32:56;;;;;;;10.13;3.35;;;17.20;97.80;;;;;;5072523;28;20055;-78
2021/08/16 09:35:22;;;;;;;9.88;3.40;;;17.20;97.50;;;;;;5072721;28;20445;-78
2021/08/16 09:37:56;;;;;;;11.52;3.67;;;17.20;97.10;;;;;;5074869;28;20044;-78
2021/08/16 09:40:22;;;;;;;9.60;3.42;;;17.10;96.00;;;;;;5073824;28;20388;-78
2021/08/16 09:42:53;;;;;;;15.38;4.03;;;17.10;96.00;;;;;;5073958;28;20035;-78
2021/08/16 09:45:32;;;;;;;8.60;2.90;;;17.10;95.90;;;;;;5062326;28;20532;-78
2021/08/16 09:48:00;;;;;;;7.93;3.28;;;17.10;95.80;;;;;;5055013;28;20021;-78
2021/08/16 09:50:46;;;;;;;11.80;3.42;;;17.10;95.40;;;;;;5053649;28;20017;-78
2021/08/16 09:53:19;;;;;;;7.47;3.42;;;17.10;94.80;;;;;;5037188;28;20017;-79
2021/08/16 09:55:53;;;;;;;11.02;2.80;;;17.10;94.40;;;;;;5054944;28;20430;-78
2021/08/16 09:58:20;;;;;;;9.80;3.40;;;17.10;94.50;;;;;;5054143;28;20020;-81
2021/08/16 10:00:49;;;;;;;13.45;3.28;;;17.10;94.00;;;;;;5063292;28;20037;-79
2021/08/16 10:03:15;;;;;;;10.32;3.15;;;17.20;94.10;;;;;;5054397;28;20078;-78
2021/08/16 10:05:42;;;;;;;11.23;3.88;;;17.30;94.00;;;;;;5053485;28;20037;-79
2021/08/16 10:08:10;;;;;;;8.55;2.72;;;17.40;94.20;;;;;;5052537;28;20032;-79
2021/08/16 10:10:37;;;;;;;10.38;3.35;;;17.50;94.20;;;;;;5037116;28;20492;-79
2021/08/16 10:13:05;;;;;;;11.27;3.38;;;17.60;93.50;;;;;;5053670;28;20170;-79
2021/08/16 10:15:37;;;;;;;11.30;3.42;;;17.70;93.10;;;;;;5071042;28;20085;-80
2021/08/16 10:18:04;;;;;;;13.75;3.67;;;17.80;92.50;;;;;;5074717;28;20024;-78
2021/08/16 10:20:31;;;;;;;10.52;3.70;;;17.80;92.00;;;;;;5068935;28;20037;-77
2021/08/16 10:22:56;;;;;;;9.70;3.75;;;18.00;91.70;;;;;;5058852;28;20381;-77
2021/08/16 10:25:22;;;;;;;9.30;2.90;;;18.10;91.40;;;;;;5059652;28;20029;-77
2021/08/16 10:27:58;;;;;;;9.43;3.95;;;18.30;91.30;;;;;;5062287;28;20096;-78
2021/08/16 10:30:24;;;;;;;11.60;4.10;;;18.50;90.80;;;;;;5063085;28;20024;-77
2021/08/16 10:33:01;;;;;;;13.40;3.42;;;18.90;88.10;;;;;;5064309;28;20028;-78
2021/08/16 10:35:40;;;;;;;10.85;4.00;;;19.20;87.50;;;;;;5072204;28;20035;-78
2021/08/16 10:38:08;;;;;;;13.13;4.25;;;19.50;86.60;;;;;;5060634;28;20036;-79
2021/08/16 10:40:42;;;;;;;8.50;3.40;;;19.80;84.90;;;;;;5065677;28;20468;-79
2021/08/16 10:43:14;;;;;;;8.23;3.33;;;20.10;82.60;;;;;;5065435;28;20027;-78
2021/08/16 10:45:51;;;;;;;9.23;3.35;;;20.30;79.30;;;;;;5061605;28;20024;-77
2021/08/16 10:48:28;;;;;;;9.80;2.95;;;20.40;77.40;;;;;;5064364;28;20040;-79
2021/08/16 10:51:10;;;;;;;10.98;3.75;;;20.20;76.20;;;;;;5062385;28;20028;-79
2021/08/16 10:53:52;;;;;;;12.38;4.35;;;20.20;76.50;;;;;;5063940;28;20021;-80
2021/08/16 10:56:20;;;;;;;12.05;4.72;;;20.10;75.10;;;;;;5064677;28;20027;-81
2021/08/16 10:58:47;;;;;;;9.60;4.00;;;19.90;75.20;;;;;;5063513;28;20110;-84
2021/08/16 11:01:24;;;;;;;14.07;4.40;;;19.80;76.10;;;;;;5061031;28;20025;-79
2021/08/16 11:04:01;;;;;;;14.00;4.88;;;19.70;76.20;;;;;;5047838;28;20064;-79
2021/08/16 11:06:28;;;;;;;12.48;4.38;;;19.70;76.70;;;;;;5059031;28;20175;-80
2021/08/16 11:09:03;;;;;;;11.55;4.18;;;19.70;76.30;;;;;;5066426;28;20463;-80
2021/08/16 11:11:32;;;;;;;10.85;3.92;;;19.80;76.50;;;;;;5073477;28;20039;-81
2021/08/16 11:14:11;;;;;;;8.82;2.58;;;19.90;74.70;;;;;;5072131;28;20013;-82
2021/08/16 11:16:50;;;;;;;9.77;3.33;;;19.90;74.00;;;;;;5072234;28;20028;-82
2021/08/16 11:19:16;;;;;;;7.97;3.22;;;19.90;72.90;;;;;;5073286;28;20487;-81
2021/08/16 11:21:55;;;;;;;6.90;2.60;;;19.80;72.00;;;;;;5055301;28;20028;-81
2021/08/16 11:24:34;;;;;;;8.25;2.72;;;19.70;72.60;;;;;;5072037;28;20556;-81
2021/08/16 11:27:00;;;;;;;6.85;2.50;;;19.50;74.30;;;;;;5072001;28;20024;-81
2021/08/16 11:29:28;;;;;;;9.07;2.75;;;19.40;75.60;;;;;;5071942;28;20028;-83
2021/08/16 11:31:58;;;;;;;7.07;2.28;;;19.30;74.30;;;;;;5072247;28;20032;-79
2021/08/16 11:34:28;;;;;;;5.90;2.50;;;19.10;73.10;;;;;;5071911;28;20029;-82
2021/08/16 11:36:56;;;;;;;5.82;2.38;;;19.00;72.00;;;;;;5058256;28;20523;-84
2021/08/16 11:39:32;;;;;;;9.38;3.15;;;18.90;72.60;;;;;;5052768;28;20020;-83
2021/08/16 11:42:03;;;;;;;8.05;2.95;;;18.70;74.30;;;;;;5050298;28;20527;-80
2021/08/16 11:44:30;;;;;;;6.45;2.15;;;18.50;76.90;;;;;;5051929;28;20103;-77
2021/08/16 11:47:00;;;;;;;6.78;2.22;;;18.40;78.50;;;;;;5051811;28;20036;-77
2021/08/16 11:49:31;;;;;;;5.60;1.90;;;18.30;79.40;;;;;;5053061;28;20445;-84
2021/08/16 11:51:57;;;;;;;5.35;2.28;;;18.30;80.00;;;;;;5052916;28;20469;-85
2021/08/16 11:54:31;;;;;;;7.93;2.97;;;18.40;80.90;;;;;;5053018;28;20035;-79
2021/08/16 11:56:59;;;;;;;6.70;2.50;;;18.40;81.40;;;;;;5051936;28;20083;-82
2021/08/16 11:59:25;;;;;;;10.00;2.88;;;18.40;81.70;;;;;;5035245;28;20025;-82
2021/08/16 12:01:54;;;;;;;6.22;2.22;;;18.40;81.90;;;;;;5035280;28;20083;-81
2021/08/16 12:04:21;;;;;;;6.50;2.78;;;18.40;82.00;;;;;;5051795;28;20063;-81
2021/08/16 12:06:50;;;;;;;7.03;2.40;;;18.40;81.50;;;;;;5051757;28;20033;-78
2021/08/16 12:09:16;;;;;;;6.35;2.55;;;18.40;82.10;;;;;;5052920;28;20044;-80
2021/08/16 12:11:43;;;;;;;9.43;2.38;;;18.30;82.30;;;;;;5052871;28;20021;-85
2021/08/16 12:14:08;;;;;;;10.38;2.70;;;18.20;81.10;;;;;;5052973;28;20017;-80
2021/08/16 12:16:36;;;;;;;9.73;2.70;;;17.90;82.40;;;;;;5051452;28;20358;-80
2021/08/16 12:19:04;;;;;;;10.05;2.00;;;17.70;82.90;;;;;;5061218;28;20162;-77
2021/08/16 12:21:30;;;;;;;8.55;2.30;;;17.50;83.70;;;;;;5072842;28;20024;-81
2021/08/16 12:24:04;;;;;;;11.27;2.75;;;17.10;83.50;;;;;;5055180;28;20028;-81
2021/08/16 12:26:40;;;;;;;8.18;2.15;;;16.90;85.10;;;;;;5071535;28;20029;-81
2021/08/16 12:29:18;;;;;;;14.52;3.05;;;16.80;86.40;;;;;;5073080;28;20028;-84
2021/08/16 12:31:43;;;;;;;9.00;2.47;;;16.70;87.20;;;;;;5073268;28;20017;-83
2021/08/16 12:34:11;;;;;;;13.25;2.50;;;16.60;88.00;;;;;;5058353;28;20518;-81
2021/08/16 12:36:38;;;;;;;11.00;2.42;;;16.50;88.20;;;;;;5074768;28;20045;-79
2021/08/16 12:39:09;;;;;;;9.10;2.60;;;16.50;88.70;;;;;;5076221;28;20101;-79